Little Valley, California
Current Conditions -  °F | °C
As of 12:55 AM on Monday 24 Nov 2014 (Local Time) from KAAT Reporting Station
Clear Clear  
Wind Chill: -4°   Ceiling: Unl
Heat Index: -4°   Visibility: 10mi
Dew Point: -6°   Wind: 0mph
Humidity: 88%   Direction: NA
Pressure: 30.38"   Gusts: NA
Location:  40.9954°N, 121.135°W
Report Text: KAAT 240855Z AUTO 00000KT 10SM CLR M04/M06 A3038 RMK AO2 SLP306 T10441061 53003
Loading
Personal Weather Stations






























Interactive Weather Map New forecast layout! Learn more

10-Day Weather Forecast

Advertisements
Track Severe Weather on mobile